Aviation Digital Data Service (ADDS)

Output produced by METARs form (0140 UTC 22 February 2019)
found at http://www.aviationweather.gov/metar/data/
 
Forecast for: HESH (SHARM EL SHEIKHI, EG)
Text: TAF HESH 212300Z 2200/2306 33012KT CAVOK
Forecast period: 0000 UTC 22 February 2019 to 0600 UTC 23 February 2019
Forecast type: FROM: standard forecast or significant change
Winds: from the NNW (330 degrees) at 14 MPH (12 knots; 6.2 m/s)
Visibility: 6 or more miles 10+ km)
Ceiling: unknown
Clouds: missing
Weather: NSW  (no significant weather)